Search for airport 
image banner adimage banner adimage banner ad
image banner ad

0CL9 - Sce San Jacinto Valley Service Center

Located in Romoland, United States

ICAO - 0CL9, IATA -

Data provided by Airmate  

General information

Coordinates: N33°44'28" W117°9'31"
Elevation is 1482 feet MSL.
Magnetic variation is 14° East
View others Airports in California

Operational data

Special qualification required
Current time UTC:
Current local time:
Weather at : KRIV - March Arb ( 18 km )
METAR: KRIV 211258Z AUTO 00000KT 10SM CLR 15/12 A2996 RMK AO2 SLP133 T01460116
TAF: TAF KRIV 211205Z 2112/2218 VRB04KT 9999 SKC QNH2994INS BECMG 2119/2120 32009KT 9999 SKC 510009 QNH2992INS TEMPO 2120/2202 32012G20KT BECMG 2207/2208 VRB05KT 9999 SCT180 QNH2993INS TX34/2122Z TN15/2113Z
View NOTAMs / SUP AIP / TFR affecting this airport [VIEW]
Communications frequencies: [VIEW]

Runways:

Airport contact information

Address: Romoland United States

Satellite view of 0CL9